Time;durP1;ratioP1;P1;durP2;ratioP2;P2;SDS_P1;SDS_P2;PMS_P1;PMS_P2;Temp;Humidity;BMP_temperature;BMP_pressure;BME280_temperature;BME280_humidity;BME280_pressure;Samples;Min_cycle;Max_cycle;Signal;HPM_P1;HPM_P2
2021/03/15 00:01:23;;;;;;;22.22;16.97;;;;;;;3.33;98.45;98088.11;1796951;77;20990;-56
2021/03/15 00:03:51;;;;;;;20.95;16.65;;;;;;;3.30;98.30;98088.42;1782597;79;21072;-55
2021/03/15 00:06:19;;;;;;;19.55;16.35;;;;;;;3.29;98.25;98093.34;1782542;79;21123;-54
2021/03/15 00:08:47;;;;;;;18.67;15.23;;;;;;;3.28;98.11;98096.96;1791092;79;21116;-56
2021/03/15 00:11:16;;;;;;;17.42;14.00;;;;;;;3.27;97.94;98096.63;1800422;79;21375;-56
2021/03/15 00:13:45;;;;;;;16.37;14.58;;;;;;;3.28;97.72;98094.34;1789939;79;20908;-55
2021/03/15 00:16:13;;;;;;;21.57;15.58;;;;;;;3.27;97.53;98095.30;1792956;79;20922;-55
2021/03/15 00:18:41;;;;;;;22.20;16.32;;;;;;;3.27;97.26;98100.56;1808201;79;21147;-55
2021/03/15 00:21:09;;;;;;;26.37;16.27;;;;;;;3.27;97.01;98101.88;1800980;77;21144;-54
2021/03/15 00:23:36;;;;;;;22.55;16.35;;;;;;;3.26;96.67;98100.22;1782635;79;21349;-55
2021/03/15 00:26:04;;;;;;;21.70;16.20;;;;;;;3.24;96.46;98106.13;1782669;77;21080;-54
2021/03/15 00:28:31;;;;;;;24.25;17.25;;;;;;;3.23;96.27;98111.55;1782770;79;21100;-57
2021/03/15 00:30:59;;;;;;;21.97;16.15;;;;;;;3.20;96.01;98111.37;1783176;79;21017;-54
2021/03/15 00:33:27;;;;;;;22.15;16.77;;;;;;;3.16;95.75;98110.03;1794878;79;21638;-55
2021/03/15 00:35:56;;;;;;;23.05;16.65;;;;;;;3.13;95.37;98113.48;1782530;79;21056;-54
2021/03/15 00:38:24;;;;;;;20.50;15.03;;;;;;;3.06;95.10;98110.64;1782552;77;20930;-55
2021/03/15 00:40:51;;;;;;;18.77;14.50;;;;;;;3.02;94.99;98108.00;1782507;79;20945;-55
2021/03/15 00:43:19;;;;;;;18.15;14.10;;;;;;;3.00;95.01;98110.77;1786888;79;20981;-54
2021/03/15 00:45:46;;;;;;;20.43;16.07;;;;;;;2.96;94.70;98109.45;1760116;78;21139;-54
2021/03/15 00:48:14;;;;;;;21.10;15.40;;;;;;;2.95;94.67;98112.20;1754712;79;21389;-55
2021/03/15 00:50:42;;;;;;;20.57;15.93;;;;;;;2.88;94.41;98115.12;1752229;79;21138;-54
2021/03/15 00:53:14;;;;;;;17.92;14.58;;;;;;;2.82;94.17;98111.80;1770525;79;21131;-55
2021/03/15 00:55:42;;;;;;;17.65;13.80;;;;;;;2.75;94.09;98117.34;1737733;81;21076;-55
2021/03/15 00:58:09;;;;;;;14.83;12.85;;;;;;;2.71;94.24;98119.44;1752748;79;21091;-54
2021/03/15 01:00:39;;;;;;;13.88;11.53;;;;;;;2.72;94.36;98125.52;1777704;79;21423;-56
2021/03/15 01:03:14;;;;;;;15.85;12.43;;;;;;;2.71;94.28;98127.83;1789993;79;21108;-55
2021/03/15 01:05:47;;;;;;;20.55;13.88;;;;;;;2.71;94.19;98134.39;1747117;79;21139;-55
2021/03/15 01:08:28;;;;;;;19.52;14.18;;;;;;;2.68;93.80;98138.64;1768619;79;21015;-54
2021/03/15 01:10:57;;;;;;;19.85;13.60;;;;;;;2.63;93.70;98141.73;1775137;78;21161;-54
2021/03/15 01:13:25;;;;;;;21.12;14.47;;;;;;;2.60;93.69;98145.14;1791310;79;21420;-54
2021/03/15 01:15:54;;;;;;;18.00;13.43;;;;;;;2.57;93.57;98142.81;1755053;79;21093;-54
2021/03/15 01:18:22;;;;;;;21.73;16.00;;;;;;;2.55;93.60;98145.60;1747622;79;21065;-54
2021/03/15 01:20:50;;;;;;;17.23;13.25;;;;;;;2.54;93.58;98148.36;1795742;79;20974;-54
2021/03/15 01:23:19;;;;;;;19.10;13.72;;;;;;;2.55;93.61;98146.08;1776819;79;21157;-55
2021/03/15 01:25:46;;;;;;;19.73;13.20;;;;;;;2.56;93.53;98154.28;1765745;79;21402;-55
2021/03/15 01:28:15;;;;;;;19.90;14.18;;;;;;;2.56;93.40;98154.28;1765677;79;21061;-55
2021/03/15 01:30:44;;;;;;;18.40;13.45;;;;;;;2.54;93.23;98157.55;1765693;79;21044;-56
2021/03/15 01:33:12;;;;;;;16.23;12.82;;;;;;;2.53;93.31;98161.17;1768033;79;21500;-56
2021/03/15 01:35:40;;;;;;;18.67;14.05;;;;;;;2.51;93.19;98161.30;1763451;78;21172;-55
2021/03/15 01:38:08;;;;;;;16.37;12.70;;;;;;;2.50;93.08;98167.03;1747262;79;21201;-55
2021/03/15 01:40:36;;;;;;;16.62;13.20;;;;;;;2.50;93.08;98169.66;1747148;79;20981;-55
2021/03/15 01:43:04;;;;;;;18.02;13.08;;;;;;;2.49;92.99;98165.41;1756256;78;21104;-55
2021/03/15 01:45:32;;;;;;;14.98;12.35;;;;;;;2.51;92.94;98171.80;1765759;79;21623;-56
2021/03/15 01:48:00;;;;;;;16.70;12.95;;;;;;;2.53;92.91;98178.23;1760067;79;21128;-55
2021/03/15 01:50:29;;;;;;;19.62;13.62;;;;;;;2.51;92.70;98175.74;1777577;80;22264;-54
2021/03/15 01:52:56;;;;;;;17.02;12.68;;;;;;;2.49;92.62;98179.84;1759741;79;21164;-54
2021/03/15 01:55:24;;;;;;;16.70;12.70;;;;;;;2.49;92.63;98185.09;1775732;79;20879;-54
2021/03/15 01:57:52;;;;;;;17.95;13.35;;;;;;;2.49;92.66;98182.47;1753403;81;21109;-54
2021/03/15 02:00:20;;;;;;;13.43;11.85;;;;;;;2.50;92.55;98180.67;1764071;78;21310;-54
2021/03/15 02:02:59;;;;;;;12.33;11.05;;;;;;;2.49;92.58;98182.47;1777882;78;21200;-54
2021/03/15 02:05:36;;;;;;;13.32;11.93;;;;;;;2.50;92.47;98189.35;1780566;78;21070;-54
2021/03/15 02:08:05;;;;;;;14.35;12.05;;;;;;;2.46;92.36;98184.08;1780511;79;21144;-55
2021/03/15 02:10:35;;;;;;;14.80;11.50;;;;;;;2.44;92.38;98186.52;1761320;79;21086;-55
2021/03/15 02:13:34;;;;;;;12.70;10.72;;;;;;;2.41;92.38;98185.02;1775828;79;21093;-55
2021/03/15 02:16:42;;;;;;;14.68;11.57;;;;;;;2.40;92.36;98186.47;1765707;79;21355;-55
2021/03/15 02:19:32;;;;;;;14.47;11.78;;;;;;;2.38;92.45;98180.55;1759353;78;20945;-54
2021/03/15 02:22:33;;;;;;;12.95;10.68;;;;;;;2.37;92.48;98186.28;1772181;79;20927;-55
2021/03/15 02:25:12;;;;;;;14.50;10.75;;;;;;;2.38;92.44;98187.11;1766798;79;21198;-55
2021/03/15 02:28:23;;;;;;;11.63;10.43;;;;;;;2.37;92.34;98184.97;1774223;79;21093;-55
2021/03/15 02:31:29;;;;;;;13.53;11.05;;;;;;;2.36;92.36;98189.06;1769101;78;21192;-54
2021/03/15 02:34:26;;;;;;;13.65;10.55;;;;;;;2.32;92.34;98185.91;1771762;78;21037;-54
2021/03/15 02:36:53;;;;;;;14.13;10.45;;;;;;;2.31;92.35;98182.96;1795562;79;21053;-54
2021/03/15 02:39:24;;;;;;;11.25;10.03;;;;;;;2.32;92.44;98183.80;1768994;78;21045;-55
2021/03/15 02:41:56;;;;;;;12.30;9.28;;;;;;;2.32;92.44;98183.28;1767587;79;21341;-56
2021/03/15 02:44:23;;;;;;;9.80;8.78;;;;;;;2.35;92.41;98184.78;1775773;79;21435;-55
2021/03/15 02:46:50;;;;;;;9.63;8.63;;;;;;;2.35;92.36;98185.61;1801143;79;20982;-56
2021/03/15 02:49:18;;;;;;;14.43;9.93;;;;;;;2.35;92.23;98186.09;1796645;79;20977;-56
2021/03/15 02:51:46;;;;;;;13.50;10.28;;;;;;;2.35;92.07;98183.47;1791643;79;21164;-55
2021/03/15 02:54:14;;;;;;;13.85;10.48;;;;;;;2.33;91.94;98186.73;1796714;79;20910;-55
2021/03/15 02:56:44;;;;;;;18.90;12.43;;;;;;;2.31;91.80;98186.90;1768531;79;21210;-55
2021/03/15 02:59:12;;;;;;;22.62;12.33;;;;;;;2.29;91.81;98190.16;1755451;79;21000;-55
2021/03/15 03:01:41;;;;;;;22.98;13.72;;;;;;;2.32;91.88;98190.36;1771038;79;21192;-54
2021/03/15 03:04:09;;;;;;;23.47;12.95;;;;;;;2.31;91.66;98189.52;1753684;80;20993;-54
2021/03/15 03:06:38;;;;;;;29.32;15.53;;;;;;;2.32;91.55;98203.47;1761201;79;21138;-55
2021/03/15 03:09:07;;;;;;;27.50;16.02;;;;;;;2.28;91.43;98201.63;1771189;79;21433;-57
2021/03/15 03:11:36;;;;;;;29.67;16.05;;;;;;;2.26;91.34;98205.38;1769001;79;21083;-55
2021/03/15 03:14:06;;;;;;;28.02;15.38;;;;;;;2.22;91.39;98205.31;1778837;79;20877;-54
2021/03/15 03:16:37;;;;;;;31.65;15.98;;;;;;;2.19;91.42;98211.69;1766053;79;21088;-55
2021/03/15 03:19:09;;;;;;;26.42;15.53;;;;;;;2.17;91.50;98210.19;1770336;79;21720;-54
2021/03/15 03:21:40;;;;;;;23.57;14.60;;;;;;;2.15;91.54;98209.03;1784014;79;22218;-55
2021/03/15 03:24:09;;;;;;;31.40;14.03;;;;;;;2.14;91.66;98208.69;1769137;79;21605;-55
2021/03/15 03:26:37;;;;;;;22.80;13.50;;;;;;;2.14;91.74;98206.06;1783978;79;21538;-56
2021/03/15 03:29:05;;;;;;;24.67;14.18;;;;;;;2.17;91.86;98204.94;1769374;79;21148;-54
2021/03/15 03:31:34;;;;;;;25.70;14.23;;;;;;;2.18;91.97;98206.12;1777500;79;21120;-55
2021/03/15 03:34:02;;;;;;;26.95;15.78;;;;;;;2.19;91.89;98208.27;1776000;79;21356;-54
2021/03/15 03:36:29;;;;;;;33.15;15.53;;;;;;;2.20;91.86;98208.58;1780637;79;21013;-55
2021/03/15 03:38:57;;;;;;;22.30;14.45;;;;;;;2.23;91.83;98205.67;1757850;79;21195;-54
2021/03/15 03:41:24;;;;;;;23.62;14.13;;;;;;;2.25;91.76;98205.02;1755269;79;21151;-54
2021/03/15 03:43:54;;;;;;;25.82;13.35;;;;;;;2.27;91.65;98205.69;1766413;79;21069;-54
2021/03/15 03:46:21;;;;;;;21.27;14.15;;;;;;;2.28;91.66;98206.05;1766149;79;21414;-55
2021/03/15 03:48:50;;;;;;;20.95;12.53;;;;;;;2.28;91.59;98206.05;1765672;79;21128;-54
2021/03/15 03:51:21;;;;;;;23.73;14.53;;;;;;;2.27;91.43;98201.27;1755917;79;21052;-54
2021/03/15 03:54:08;;;;;;;22.15;14.85;;;;;;;2.25;91.18;98201.92;1773875;79;21041;-55
2021/03/15 03:57:02;;;;;;;22.55;15.83;;;;;;;2.21;91.06;98205.00;1773766;79;21605;-55
2021/03/15 03:59:31;;;;;;;22.90;13.80;;;;;;;2.16;90.98;98205.93;1765548;79;21354;-55
2021/03/15 04:02:01;;;;;;;22.85;13.62;;;;;;;2.11;91.00;98209.48;1746514;79;21176;-55
2021/03/15 04:04:42;;;;;;;16.95;12.53;;;;;;;2.08;91.09;98196.66;1755075;80;21020;-55
2021/03/15 04:07:09;;;;;;;20.25;11.45;;;;;;;2.07;91.14;98202.39;1775835;79;21094;-54
2021/03/15 04:09:37;;;;;;;17.37;12.10;;;;;;;2.08;91.14;98207.16;1767994;79;21175;-54
2021/03/15 04:12:11;;;;;;;14.58;11.00;;;;;;;2.06;90.98;98200.72;1777896;79;21350;-54
2021/03/15 04:14:42;;;;;;;21.95;12.75;;;;;;;2.03;90.88;98201.53;1777984;79;21119;-54
2021/03/15 04:17:13;;;;;;;18.62;12.25;;;;;;;2.00;91.02;98203.95;1766357;79;20994;-55
2021/03/15 04:19:54;;;;;;;24.30;13.95;;;;;;;2.00;91.02;98201.81;1783676;79;21026;-54
2021/03/15 04:22:27;;;;;;;23.70;15.08;;;;;;;1.96;90.76;98203.90;1758406;79;21064;-55
2021/03/15 04:25:00;;;;;;;34.85;17.90;;;;;;;1.91;90.73;98201.38;1781508;79;21463;-55
2021/03/15 04:27:27;;;;;;;29.90;16.67;;;;;;;1.88;90.75;98203.00;1786450;79;21152;-54
2021/03/15 04:29:55;;;;;;;21.35;14.65;;;;;;;1.87;90.91;98202.17;1787139;79;20923;-54
2021/03/15 04:32:23;;;;;;;28.92;17.35;;;;;;;1.88;90.93;98198.08;1785147;79;20997;-55
2021/03/15 04:34:51;;;;;;;27.25;16.95;;;;;;;1.87;90.99;98199.55;1787005;79;21040;-54
2021/03/15 04:37:19;;;;;;;27.35;16.70;;;;;;;1.86;91.05;98197.41;1787308;79;21219;-54
2021/03/15 04:39:47;;;;;;;30.68;17.20;;;;;;;1.86;91.14;98192.64;1772423;79;21167;-55
2021/03/15 04:42:15;;;;;;;27.60;17.60;;;;;;;1.85;91.21;98187.08;1771034;79;21000;-54
2021/03/15 04:44:43;;;;;;;32.05;20.70;;;;;;;1.86;91.26;98185.60;1773629;79;21125;-54
2021/03/15 04:47:10;;;;;;;27.77;16.77;;;;;;;1.88;91.24;98186.27;1790920;79;21124;-54
2021/03/15 04:49:38;;;;;;;26.02;17.45;;;;;;;1.90;90.82;98194.02;1752192;79;21379;-54
2021/03/15 04:52:08;;;;;;;25.50;15.98;;;;;;;1.82;90.36;98192.13;1793358;79;21187;-54
2021/03/15 04:54:36;;;;;;;23.80;16.50;;;;;;;1.75;90.38;98183.66;1776417;79;21017;-56
2021/03/15 04:57:05;;;;;;;42.45;26.82;;;;;;;1.73;90.77;98177.26;1771888;79;21124;-55
2021/03/15 04:59:32;;;;;;;62.25;32.88;;;;;;;1.77;90.93;98173.36;1772736;79;21175;-54
2021/03/15 05:02:00;;;;;;;39.50;22.73;;;;;;;1.84;91.26;98170.51;1780370;79;21332;-55
2021/03/15 05:04:27;;;;;;;29.63;18.95;;;;;;;1.95;91.56;98169.96;1783326;79;21132;-55
2021/03/15 05:06:55;;;;;;;28.73;19.67;;;;;;;2.02;91.36;98179.70;1781476;79;21043;-55
2021/03/15 05:09:22;;;;;;;25.80;17.90;;;;;;;2.08;91.50;98180.44;1789600;79;21084;-55
2021/03/15 05:11:50;;;;;;;23.32;14.83;;;;;;;2.16;91.56;98188.39;1780438;79;21132;-56
2021/03/15 05:14:18;;;;;;;17.25;14.75;;;;;;;2.39;92.06;98196.16;1781629;79;21358;-55
2021/03/15 05:16:46;;;;;;;18.17;14.03;;;;;;;2.73;92.33;98204.17;1788214;79;21108;-56
2021/03/15 05:19:14;;;;;;;19.70;13.15;;;;;;;3.01;91.58;98193.05;1780451;79;21077;-56
2021/03/15 05:21:42;;;;;;;16.57;13.62;;;;;;;3.21;91.05;98200.25;1788159;79;21033;-55
2021/03/15 05:24:10;;;;;;;19.10;14.60;;;;;;;3.31;89.83;98193.88;1772063;79;21072;-56
2021/03/15 05:26:40;;;;;;;19.50;13.00;;;;;;;3.37;89.06;98195.06;1783819;79;21430;-55
2021/03/15 05:29:08;;;;;;;17.75;13.40;;;;;;;3.41;88.77;98191.16;1782363;79;21037;-55
2021/03/15 05:31:38;;;;;;;17.27;13.98;;;;;;;3.46;88.13;98199.41;1785817;79;21140;-55
2021/03/15 05:34:07;;;;;;;18.57;14.73;;;;;;;3.41;87.25;98205.14;1790152;79;21152;-54
2021/03/15 05:36:35;;;;;;;19.40;14.43;;;;;;;3.32;86.81;98207.85;1786286;79;21018;-54
2021/03/15 05:39:08;;;;;;;19.67;14.45;;;;;;;3.25;86.64;98210.77;1780001;79;21289;-54
2021/03/15 05:41:46;;;;;;;21.85;15.75;;;;;;;3.17;86.47;98206.78;1774845;79;21033;-54
2021/03/15 05:44:37;;;;;;;23.20;16.20;;;;;;;3.10;86.54;98215.27;1772386;79;21140;-56
2021/03/15 05:47:58;;;;;;;29.35;18.87;;;;;;;3.03;86.71;98226.06;1770451;79;22286;-55
2021/03/15 05:51:09;;;;;;;30.75;20.32;;;;;;;2.96;86.59;98239.97;1785618;79;21654;-56
2021/03/15 05:54:07;;;;;;;37.33;21.82;;;;;;;2.86;86.55;98244.01;1783895;79;21597;-56
2021/03/15 05:56:58;;;;;;;27.00;21.12;;;;;;;2.81;87.18;98240.19;1782225;79;20984;-56
2021/03/15 05:59:39;;;;;;;29.72;21.15;;;;;;;2.80;87.48;98236.72;1793835;79;21076;-61
2021/03/15 06:02:50;;;;;;;33.88;22.22;;;;;;;2.82;87.86;98240.02;1774107;79;21428;-56
2021/03/15 06:05:28;;;;;;;30.85;19.52;;;;;;;2.84;88.11;98245.14;1789349;79;21092;-57
2021/03/15 06:08:09;;;;;;;31.82;20.70;;;;;;;2.88;88.51;98249.09;1771963;79;21009;-56
2021/03/15 06:11:03;;;;;;;32.05;20.77;;;;;;;2.92;88.56;98257.03;1771758;79;21144;-56
2021/03/15 06:13:33;;;;;;;32.25;20.37;;;;;;;2.96;88.58;98253.94;1754037;79;21470;-56
2021/03/15 06:16:05;;;;;;;32.00;21.30;;;;;;;3.02;88.69;98253.31;1771769;79;21143;-57
2021/03/15 06:18:33;;;;;;;28.67;21.52;;;;;;;3.09;88.83;98250.42;1771811;79;21108;-55
2021/03/15 06:21:00;;;;;;;29.72;21.85;;;;;;;3.20;88.58;98260.35;1771781;79;21433;-55
2021/03/15 06:23:30;;;;;;;32.73;22.50;;;;;;;3.26;88.54;98257.92;1771655;79;21143;-55
2021/03/15 06:25:58;;;;;;;30.25;21.35;;;;;;;3.35;88.49;98257.50;1776012;79;21155;-55
2021/03/15 06:28:25;;;;;;;29.98;21.45;;;;;;;3.45;88.59;98257.73;1771763;79;21132;-55
2021/03/15 06:30:53;;;;;;;28.27;20.60;;;;;;;3.55;88.49;98254.98;1771756;79;21108;-56
2021/03/15 06:33:22;;;;;;;30.70;21.10;;;;;;;3.64;88.24;98258.84;1771835;79;21377;-55
2021/03/15 06:36:01;;;;;;;30.10;20.70;;;;;;;3.72;88.07;98256.73;1776527;78;21268;-56
2021/03/15 06:38:32;;;;;;;32.20;20.97;;;;;;;3.82;87.97;98259.24;1773970;79;21136;-56
2021/03/15 06:41:04;;;;;;;32.50;21.48;;;;;;;3.93;88.02;98258.48;1782353;78;21108;-56
2021/03/15 06:43:33;;;;;;;28.45;21.73;;;;;;;4.06;87.72;98264.63;1778549;78;21168;-55
2021/03/15 06:46:00;;;;;;;29.45;19.98;;;;;;;4.15;87.33;98255.27;1767800;79;22818;-56
2021/03/15 06:48:29;;;;;;;26.40;19.27;;;;;;;4.24;86.90;98262.23;1765179;79;21172;-56
2021/03/15 06:50:59;;;;;;;26.27;18.37;;;;;;;4.23;85.83;98264.52;1765144;79;21165;-55
2021/03/15 06:53:39;;;;;;;27.50;18.67;;;;;;;4.23;85.87;98267.15;1764920;79;21101;-54
2021/03/15 06:56:12;;;;;;;22.05;17.62;;;;;;;4.27;85.37;98263.72;1766528;79;21124;-56
2021/03/15 06:58:53;;;;;;;23.38;18.23;;;;;;;4.24;84.90;98257.45;1768435;79;21359;-55
2021/03/15 07:01:27;;;;;;;21.75;15.75;;;;;;;4.24;85.02;98257.45;1765253;79;21164;-58
2021/03/15 07:04:12;;;;;;;22.73;15.70;;;;;;;4.26;85.03;98257.63;1765314;79;21048;-54
2021/03/15 07:06:42;;;;;;;15.50;12.13;;;;;;;4.32;85.51;98270.16;1773624;78;21717;-57
2021/03/15 07:09:15;;;;;;;11.78;9.93;;;;;;;4.45;85.72;98259.64;1765469;79;21101;-56
2021/03/15 07:11:43;;;;;;;14.85;9.80;;;;;;;4.59;84.93;98262.46;1765394;79;21185;-56
2021/03/15 07:14:24;;;;;;;13.15;10.18;;;;;;;4.70;83.90;98263.96;1765418;79;21041;-56
2021/03/15 07:17:00;;;;;;;10.48;9.13;;;;;;;4.81;83.21;98267.12;1765294;79;21175;-55
2021/03/15 07:19:28;;;;;;;11.57;10.00;;;;;;;4.89;82.47;98261.03;1765217;79;21172;-55
2021/03/15 07:21:55;;;;;;;10.68;9.58;;;;;;;5.00;81.63;98261.52;1765313;79;21088;-55
2021/03/15 07:24:31;;;;;;;14.07;12.55;;;;;;;5.08;80.70;98263.35;1765244;79;21344;-55
2021/03/15 07:26:58;;;;;;;31.23;23.55;;;;;;;5.15;80.17;98263.50;1765345;79;21570;-54
2021/03/15 07:29:28;;;;;;;42.15;32.48;;;;;;;5.18;79.45;98265.81;1765191;79;21077;-56
2021/03/15 07:31:56;;;;;;;41.55;31.73;;;;;;;5.17;78.95;98265.47;1765230;79;21144;-56
2021/03/15 07:34:24;;;;;;;41.70;34.35;;;;;;;5.18;78.84;98265.81;1765332;78;21599;-57
2021/03/15 07:36:58;;;;;;;41.02;34.60;;;;;;;5.19;78.37;98270.11;1767915;78;21431;-56
2021/03/15 07:39:28;;;;;;;37.65;30.70;;;;;;;5.19;78.32;98269.59;1765989;79;21132;-56
2021/03/15 07:41:57;;;;;;;34.35;26.35;;;;;;;5.27;78.45;98269.59;1765349;79;21006;-57
2021/03/15 07:44:31;;;;;;;27.90;23.30;;;;;;;5.39;78.08;98273.55;1765245;79;21124;-57
2021/03/15 07:47:05;;;;;;;25.32;20.27;;;;;;;5.41;77.66;98269.41;1780102;79;21151;-55
2021/03/15 07:49:39;;;;;;;17.42;14.63;;;;;;;5.50;77.91;98271.06;1798772;79;21529;-55
2021/03/15 07:52:11;;;;;;;15.23;13.15;;;;;;;5.56;76.98;98267.25;1797672;79;21064;-56
2021/03/15 07:54:40;;;;;;;12.40;11.22;;;;;;;5.59;76.68;98271.37;1800217;79;21084;-57
2021/03/15 07:57:24;;;;;;;13.38;11.30;;;;;;;5.58;76.07;98265.75;1796654;79;21119;-57
2021/03/15 07:59:55;;;;;;;12.95;11.45;;;;;;;5.56;76.24;98265.93;1798214;79;21558;-57
2021/03/15 08:02:29;;;;;;;16.42;12.30;;;;;;;5.64;76.04;98263.77;1799297;79;22291;-56
2021/03/15 08:04:58;;;;;;;14.93;12.93;;;;;;;5.71;75.79;98266.05;1801275;79;21072;-56
2021/03/15 08:07:27;;;;;;;14.90;13.28;;;;;;;5.74;75.55;98262.25;1796218;79;21056;-56
2021/03/15 08:09:57;;;;;;;14.35;12.85;;;;;;;5.73;75.57;98269.86;1795909;79;20933;-56
2021/03/15 08:12:31;;;;;;;14.50;12.98;;;;;;;5.75;75.84;98271.34;1798968;79;21123;-56
2021/03/15 08:15:03;;;;;;;12.90;11.60;;;;;;;5.79;75.67;98272.63;1797184;79;21337;-56
2021/03/15 08:17:31;;;;;;;16.17;11.97;;;;;;;5.81;75.77;98269.35;1797791;79;21112;-58
2021/03/15 08:19:59;;;;;;;14.50;12.75;;;;;;;5.88;75.62;98277.43;1799128;79;21171;-56
2021/03/15 08:22:28;;;;;;;12.98;11.57;;;;;;;5.88;75.44;98272.98;1798928;79;21190;-56
2021/03/15 08:24:57;;;;;;;16.62;14.10;;;;;;;5.80;75.39;98270.33;1797224;79;21191;-57
2021/03/15 08:27:29;;;;;;;19.07;15.28;;;;;;;5.72;75.50;98273.48;1796930;79;22388;-55
2021/03/15 08:30:01;;;;;;;17.00;14.95;;;;;;;5.67;75.87;98271.84;1802247;78;20997;-56
2021/03/15 08:32:34;;;;;;;15.68;13.65;;;;;;;5.64;76.05;98273.00;1798285;79;21199;-55
2021/03/15 08:35:04;;;;;;;12.85;11.40;;;;;;;5.62;76.04;98278.95;1802870;79;21570;-55
2021/03/15 08:37:59;;;;;;;14.00;12.55;;;;;;;5.63;76.41;98275.82;1772642;79;21123;-56
2021/03/15 08:40:48;;;;;;;13.05;11.63;;;;;;;5.61;76.62;98274.16;1800093;79;21512;-56
2021/03/15 08:43:26;;;;;;;12.28;11.08;;;;;;;5.67;76.65;98270.52;1796856;79;21104;-56
2021/03/15 08:46:18;;;;;;;10.95;9.85;;;;;;;5.75;76.40;98266.55;1792125;78;21168;-56
2021/03/15 08:48:53;;;;;;;11.35;10.20;;;;;;;5.81;76.21;98270.67;1781239;79;21041;-56
2021/03/15 08:51:37;;;;;;;11.90;10.63;;;;;;;5.90;76.01;98276.27;1782816;79;21092;-56
2021/03/15 08:54:08;;;;;;;11.83;9.70;;;;;;;5.96;76.05;98275.59;1766172;78;22208;-56
2021/03/15 08:56:44;;;;;;;13.80;10.78;;;;;;;5.99;75.75;98275.27;1772004;78;21631;-56
2021/03/15 08:59:13;;;;;;;9.05;8.25;;;;;;;6.03;75.82;98278.36;1776240;78;21156;-55
2021/03/15 09:01:56;;;;;;;11.05;9.95;;;;;;;6.06;76.20;98279.34;1766441;78;21192;-56
2021/03/15 09:04:41;;;;;;;10.78;9.68;;;;;;;6.14;75.63;98272.72;1767704;79;21093;-56
2021/03/15 09:07:30;;;;;;;9.08;8.18;;;;;;;6.11;75.33;98275.20;1767337;79;21423;-54
2021/03/15 09:10:27;;;;;;;9.78;8.78;;;;;;;6.05;75.26;98271.92;1766552;79;21164;-56
2021/03/15 09:13:20;;;;;;;9.40;7.80;;;;;;;6.01;75.56;98272.44;1788164;78;21092;-55
2021/03/15 09:15:54;;;;;;;10.00;8.50;;;;;;;6.06;75.93;98268.79;1779230;78;21072;-58
2021/03/15 09:18:48;;;;;;;9.28;8.38;;;;;;;6.15;75.61;98265.94;1781987;78;21120;-57
2021/03/15 09:21:29;;;;;;;9.55;8.65;;;;;;;6.17;75.38;98266.61;1765652;78;21356;-56
2021/03/15 09:24:00;;;;;;;10.80;9.80;;;;;;;6.21;75.49;98270.54;1768732;79;21002;-56
2021/03/15 09:26:32;;;;;;;10.30;9.23;;;;;;;6.28;74.77;98268.54;1767365;79;21030;-57
2021/03/15 09:29:00;;;;;;;12.13;10.98;;;;;;;6.26;74.76;98272.66;1768639;79;21112;-56
2021/03/15 09:31:27;;;;;;;10.90;9.85;;;;;;;6.27;75.18;98266.88;1769485;79;21116;-56
2021/03/15 09:33:56;;;;;;;10.93;9.93;;;;;;;6.31;75.05;98268.20;1765252;79;21378;-56
2021/03/15 09:36:28;;;;;;;10.28;9.28;;;;;;;6.36;75.12;98264.55;1767111;79;21069;-57
2021/03/15 09:38:57;;;;;;;10.53;9.53;;;;;;;6.39;75.19;98265.00;1774908;78;21073;-56
2021/03/15 09:41:27;;;;;;;10.53;9.55;;;;;;;6.42;74.95;98263.83;1785741;78;21467;-58
2021/03/15 09:43:56;;;;;;;10.23;9.23;;;;;;;6.47;75.13;98259.67;1766456;78;21027;-56
2021/03/15 09:46:27;;;;;;;9.70;8.80;;;;;;;6.46;74.75;98263.34;1766951;78;21427;-56
2021/03/15 09:48:56;;;;;;;8.75;7.85;;;;;;;6.43;74.81;98262.36;1787724;79;20926;-55
2021/03/15 09:51:28;;;;;;;10.30;9.30;;;;;;;6.43;75.05;98267.64;1778121;78;21556;-56
2021/03/15 09:54:04;;;;;;;9.88;8.98;;;;;;;6.41;75.20;98264.36;1766018;78;21543;-57
2021/03/15 09:56:34;;;;;;;9.70;8.70;;;;;;;6.42;75.42;98264.66;1768700;79;21220;-57
2021/03/15 09:59:14;;;;;;;9.68;8.70;;;;;;;6.53;75.60;98259.48;1813621;78;22681;-57
2021/03/15 10:01:45;;;;;;;11.48;8.80;;;;;;;6.51;75.25;98265.45;1791558;79;21008;-56
2021/03/15 10:04:37;;;;;;;10.98;9.68;;;;;;;6.59;75.13;98263.59;1806901;78;23133;-55
2021/03/15 10:07:21;;;;;;;9.27;8.37;;;;;;;6.59;74.87;98258.80;1740287;82;21064;-55
2021/03/15 10:10:11;;;;;;;13.18;8.15;;;;;;;6.68;74.84;98259.05;1823333;77;23169;-56
2021/03/15 10:12:51;;;;;;;13.53;10.32;;;;;;;6.67;74.51;98261.39;1801793;78;20938;-57
2021/03/15 10:15:34;;;;;;;16.67;13.33;;;;;;;6.75;74.32;98261.34;1775808;78;27961;-56
2021/03/15 10:18:21;;;;;;;14.55;10.20;;;;;;;6.80;74.63;98262.96;1756960;80;21589;-57
2021/03/15 10:20:55;;;;;;;10.28;9.18;;;;;;;6.96;74.07;98260.70;1752390;79;22137;-56
2021/03/15 10:23:28;;;;;;;9.45;8.43;;;;;;;7.04;73.88;98262.76;1767449;80;20965;-55
2021/03/15 10:26:18;;;;;;;12.10;9.65;;;;;;;7.09;73.48;98260.41;1770537;79;21079;-58
2021/03/15 10:28:50;;;;;;;11.85;10.38;;;;;;;7.09;73.27;98259.08;1802562;78;21326;-57
2021/03/15 10:31:31;;;;;;;13.22;11.80;;;;;;;7.08;73.18;98262.75;1813781;78;20990;-57
2021/03/15 10:34:00;;;;;;;12.65;11.12;;;;;;;7.09;73.41;98259.61;1784043;78;21491;-56
2021/03/15 10:36:42;;;;;;;11.08;9.98;;;;;;;7.05;73.02;98260.45;1718256;82;21064;-56
2021/03/15 10:39:11;;;;;;;13.22;10.45;;;;;;;6.98;72.93;98250.27;1704893;82;20999;-56
2021/03/15 10:41:41;;;;;;;12.33;10.28;;;;;;;6.94;72.69;98258.70;1682565;82;21359;-56
2021/03/15 10:44:11;;;;;;;13.35;10.15;;;;;;;6.89;72.74;98249.99;1691813;82;21156;-56
2021/03/15 10:46:54;;;;;;;16.48;11.22;;;;;;;6.87;72.63;98249.84;1705667;82;21422;-56
2021/03/15 10:49:27;;;;;;;16.17;11.10;;;;;;;6.83;72.71;98244.08;1705081;83;21134;-56
2021/03/15 10:51:56;;;;;;;19.15;12.15;;;;;;;6.83;72.97;98242.75;1709740;83;21167;-56
2021/03/15 10:54:34;;;;;;;15.63;11.25;;;;;;;6.83;73.17;98241.44;1703450;83;21140;-55
2021/03/15 10:57:20;;;;;;;15.30;12.63;;;;;;;6.81;73.48;98240.80;1714530;83;21547;-55
2021/03/15 10:59:50;;;;;;;16.05;11.95;;;;;;;6.81;73.70;98235.02;1727543;82;21401;-60
2021/03/15 11:02:24;;;;;;;17.40;12.98;;;;;;;6.79;73.39;98227.77;1698605;82;21100;-56
2021/03/15 11:04:58;;;;;;;16.23;12.95;;;;;;;6.76;73.55;98225.47;1696419;82;21187;-56
2021/03/15 11:07:38;;;;;;;18.95;13.35;;;;;;;6.77;73.70;98227.13;1687111;82;21208;-56
2021/03/15 11:10:20;;;;;;;17.48;13.22;;;;;;;6.79;73.53;98216.37;1686873;83;21123;-56
2021/03/15 11:12:57;;;;;;;14.90;12.25;;;;;;;6.75;73.26;98215.09;1690364;83;21397;-56
2021/03/15 11:15:37;;;;;;;13.80;11.90;;;;;;;6.76;73.07;98216.22;1691129;83;21660;-56
2021/03/15 11:18:18;;;;;;;14.70;11.53;;;;;;;6.77;73.27;98207.30;1686886;83;21598;-56
2021/03/15 11:20:54;;;;;;;13.25;11.93;;;;;;;6.80;73.42;98203.48;1687281;83;21100;-56
2021/03/15 11:23:37;;;;;;;14.03;11.80;;;;;;;6.83;73.32;98196.50;1686349;83;21494;-56
2021/03/15 11:26:17;;;;;;;13.75;12.55;;;;;;;6.86;73.15;98193.50;1811470;78;22881;-56
2021/03/15 11:28:49;;;;;;;14.98;12.10;;;;;;;6.80;73.12;98190.27;1783075;77;21100;-56
2021/03/15 11:31:23;;;;;;;13.98;12.58;;;;;;;6.81;73.24;98191.89;1780991;79;21352;-56
2021/03/15 11:33:54;;;;;;;12.58;11.30;;;;;;;6.85;73.14;98185.27;1779217;79;20977;-56
2021/03/15 11:36:45;;;;;;;13.20;11.90;;;;;;;6.96;73.18;98170.28;1846498;75;22856;-56
2021/03/15 11:39:15;;;;;;;13.80;12.37;;;;;;;7.00;72.82;98170.26;1784718;77;20996;-56
2021/03/15 11:41:45;;;;;;;14.60;13.05;;;;;;;7.03;72.57;98165.11;1798353;79;22276;-56
2021/03/15 11:44:14;;;;;;;13.10;11.85;;;;;;;7.07;72.91;98161.92;1738733;80;21025;-56
2021/03/15 11:46:41;;;;;;;13.60;12.28;;;;;;;7.12;72.84;98160.88;1725607;81;21077;-56
2021/03/15 11:49:11;;;;;;;13.03;11.73;;;;;;;7.12;72.80;98159.55;1726646;81;21001;-56
2021/03/15 11:52:10;;;;;;;11.57;10.53;;;;;;;7.14;72.46;98160.72;1781032;80;22069;-58
2021/03/15 11:54:41;;;;;;;12.63;11.40;;;;;;;7.09;72.18;98151.18;1750777;81;21626;-56
2021/03/15 11:57:09;;;;;;;12.75;11.53;;;;;;;7.06;72.27;98146.25;1753736;81;21176;-56